Time;durP1;ratioP1;P1;durP2;ratioP2;P2;SDS_P1;SDS_P2;PMS_P1;PMS_P2;Temp;Humidity;BMP_temperature;BMP_pressure;BME280_temperature;BME280_humidity;BME280_pressure;Samples;Min_cycle;Max_cycle;Signal;HPM_P1;HPM_P2
2023/08/01 00:02:14;;;;;;;4.32;1.30;;;18.50;49.70;;;;;;5095634;28;20020;-59
2023/08/01 00:04:42;;;;;;;3.72;1.40;;;18.90;48.30;;;;;;5094543;28;20123;-59
2023/08/01 00:07:09;;;;;;;3.97;1.70;;;18.70;47.60;;;;;;5094398;28;20028;-60
2023/08/01 00:09:37;;;;;;;4.10;1.60;;;17.80;49.40;;;;;;5094104;28;20048;-59
2023/08/01 00:12:05;;;;;;;3.25;1.27;;;18.70;48.20;;;;;;5095396;28;20091;-59
2023/08/01 00:14:33;;;;;;;5.30;1.50;;;18.60;47.90;;;;;;5095344;28;20017;-59
2023/08/01 00:17:00;;;;;;;5.35;1.27;;;18.60;47.80;;;;;;5094786;28;20434;-57
2023/08/01 00:19:29;;;;;;;3.92;1.52;;;18.90;47.70;;;;;;5094138;28;20050;-63
2023/08/01 00:21:56;;;;;;;4.20;1.25;;;18.50;48.30;;;;;;5095300;28;20115;-64
2023/08/01 00:24:24;;;;;;;4.07;1.50;;;18.90;48.10;;;;;;5095021;28;20034;-63
2023/08/01 00:26:55;;;;;;;3.20;1.42;;;19.10;46.70;;;;;;5095157;28;20086;-63
2023/08/01 00:29:23;;;;;;;3.20;1.33;;;18.80;48.10;;;;;;5094244;28;20476;-63
2023/08/01 00:31:51;;;;;;;2.95;1.45;;;19.20;47.30;;;;;;5095203;28;20024;-63
2023/08/01 00:34:18;;;;;;;4.45;1.70;;;19.30;47.80;;;;;;5095098;28;20051;-64
2023/08/01 00:36:46;;;;;;;6.80;1.30;;;19.90;45.80;;;;;;5095076;28;20070;-64
2023/08/01 00:39:14;;;;;;;3.30;1.27;;;19.70;46.00;;;;;;5095102;28;20016;-64
2023/08/01 00:41:41;;;;;;;2.88;1.30;;;19.80;45.80;;;;;;5094150;28;20025;-64
2023/08/01 00:44:09;;;;;;;3.25;1.40;;;19.80;46.50;;;;;;5095095;28;20440;-63
2023/08/01 00:46:37;;;;;;;2.78;1.23;;;20.10;45.30;;;;;;5095014;28;20092;-64
2023/08/01 00:49:04;;;;;;;4.20;1.27;;;20.40;44.90;;;;;;5094900;28;20025;-60
2023/08/01 00:51:33;;;;;;;3.03;1.30;;;20.80;44.60;;;;;;5093801;28;20028;-59
2023/08/01 00:54:01;;;;;;;2.97;1.38;;;20.90;44.70;;;;;;5093817;28;20020;-60
2023/08/01 00:56:29;;;;;;;3.70;1.13;;;20.90;43.30;;;;;;5095022;28;20027;-60
2023/08/01 00:58:56;;;;;;;5.05;1.48;;;21.00;43.40;;;;;;5094988;28;20357;-60
2023/08/01 01:01:24;;;;;;;4.22;1.40;;;20.50;44.20;;;;;;5095197;28;20349;-61
2023/08/01 01:03:52;;;;;;;2.80;1.17;;;21.20;43.60;;;;;;5095085;28;20382;-59
2023/08/01 01:06:41;;;;;;;3.85;1.00;;;21.70;42.30;;;;;;5094916;28;20059;-59
2023/08/01 01:09:19;;;;;;;4.68;1.10;;;21.50;41.60;;;;;;5095053;28;20461;-64
2023/08/01 01:11:47;;;;;;;4.85;1.10;;;21.60;41.30;;;;;;5094918;28;20061;-59
2023/08/01 01:14:14;;;;;;;3.78;1.15;;;21.90;41.30;;;;;;5094740;28;20143;-60
2023/08/01 01:16:42;;;;;;;2.78;0.93;;;22.00;40.90;;;;;;5094095;28;20073;-61
2023/08/01 01:19:10;;;;;;;3.42;0.98;;;22.40;41.00;;;;;;5093828;28;20035;-64
2023/08/01 01:21:40;;;;;;;2.03;0.98;;;22.40;40.50;;;;;;5095226;28;20035;-60
2023/08/01 01:24:10;;;;;;;2.70;1.02;;;22.10;40.20;;;;;;5094910;28;20049;-64
2023/08/01 01:26:39;;;;;;;3.47;1.30;;;22.10;40.80;;;;;;5093732;28;20035;-64
2023/08/01 01:29:10;;;;;;;6.88;1.20;;;22.40;40.20;;;;;;5095061;28;20024;-65
2023/08/01 01:31:39;;;;;;;2.57;0.97;;;23.00;39.40;;;;;;5098557;28;20099;-59
2023/08/01 01:34:07;;;;;;;3.78;1.33;;;23.00;39.70;;;;;;5098413;28;20078;-64
2023/08/01 01:36:35;;;;;;;3.17;0.95;;;23.30;38.40;;;;;;5097303;28;20024;-64
2023/08/01 01:39:03;;;;;;;4.25;1.05;;;23.10;38.30;;;;;;5098315;28;20024;-59
2023/08/01 01:41:30;;;;;;;2.92;0.90;;;23.00;39.00;;;;;;5098299;28;20012;-64
2023/08/01 01:43:58;;;;;;;3.70;1.00;;;23.10;38.90;;;;;;5097245;28;20031;-59
2023/08/01 01:46:25;;;;;;;3.15;0.85;;;22.70;39.90;;;;;;5098123;28;20016;-60
2023/08/01 01:48:53;;;;;;;3.17;1.10;;;22.50;39.80;;;;;;5098097;28;20461;-59
2023/08/01 01:51:22;;;;;;;4.18;1.20;;;23.10;38.60;;;;;;5096891;28;20024;-58
2023/08/01 01:53:50;;;;;;;3.53;1.10;;;23.70;37.70;;;;;;5097974;28;20365;-58
2023/08/01 01:56:18;;;;;;;3.00;1.25;;;23.20;38.90;;;;;;5097880;28;20017;-59
2023/08/01 01:58:45;;;;;;;8.35;1.60;;;23.40;38.10;;;;;;5098702;28;20049;-64
2023/08/01 02:01:13;;;;;;;3.42;1.02;;;23.40;37.90;;;;;;5097915;28;20031;-64
2023/08/01 02:03:41;;;;;;;3.75;1.17;;;23.60;38.60;;;;;;5096721;28;20024;-64
2023/08/01 02:06:08;;;;;;;3.60;1.10;;;24.10;37.00;;;;;;5097732;28;20023;-63
2023/08/01 02:08:36;;;;;;;4.40;1.10;;;24.10;37.80;;;;;;5097890;28;20039;-64
2023/08/01 02:11:04;;;;;;;2.85;1.10;;;24.00;37.60;;;;;;5097935;28;20020;-64
2023/08/01 02:13:34;;;;;;;3.75;1.25;;;23.40;38.20;;;;;;5097687;28;20158;-64
2023/08/01 02:16:02;;;;;;;2.95;1.13;;;23.00;39.10;;;;;;5096669;28;20429;-63
2023/08/01 02:18:29;;;;;;;4.10;1.30;;;23.40;37.90;;;;;;5097722;28;20353;-64
2023/08/01 02:20:57;;;;;;;3.83;1.02;;;24.10;37.20;;;;;;5097731;28;20032;-64
2023/08/01 02:23:25;;;;;;;4.03;1.10;;;23.90;37.80;;;;;;5096480;28;20039;-64
2023/08/01 02:25:52;;;;;;;5.50;1.20;;;23.80;37.90;;;;;;5097450;28;20028;-63
2023/08/01 02:28:20;;;;;;;2.67;1.00;;;24.10;38.10;;;;;;5097363;28;20560;-63
2023/08/01 02:30:50;;;;;;;2.97;1.10;;;24.60;36.90;;;;;;5097369;28;20070;-64
2023/08/01 02:33:18;;;;;;;3.80;1.33;;;24.60;36.60;;;;;;5097218;28;20028;-64
2023/08/01 02:35:47;;;;;;;3.03;1.00;;;24.80;36.90;;;;;;5097665;28;20031;-59
2023/08/01 02:38:15;;;;;;;3.38;1.00;;;24.80;36.60;;;;;;5095844;28;20052;-60
2023/08/01 02:40:43;;;;;;;3.05;0.80;;;24.80;36.00;;;;;;5096887;28;20023;-64
2023/08/01 02:43:10;;;;;;;1.98;0.70;;;24.60;36.00;;;;;;5097456;28;20024;-65
2023/08/01 02:45:38;;;;;;;3.42;0.85;;;24.50;37.00;;;;;;5097098;28;20024;-64
2023/08/01 02:48:05;;;;;;;4.55;1.15;;;24.50;36.50;;;;;;5096861;28;20020;-61
2023/08/01 02:50:33;;;;;;;2.40;0.80;;;25.00;35.00;;;;;;5097041;28;20085;-63
2023/08/01 02:53:01;;;;;;;1.15;0.65;;;25.20;35.30;;;;;;5096923;28;20047;-66
2023/08/01 02:55:28;;;;;;;5.43;1.10;;;25.30;34.30;;;;;;5096875;28;20020;-60
2023/08/01 02:57:56;;;;;;;3.45;0.90;;;25.50;34.30;;;;;;5096708;28;20016;-59
2023/08/01 03:00:24;;;;;;;2.40;1.00;;;25.90;34.20;;;;;;5096750;28;20035;-63
2023/08/01 03:02:51;;;;;;;3.58;0.90;;;25.50;34.10;;;;;;5096771;28;20016;-64
2023/08/01 03:05:19;;;;;;;3.55;0.90;;;25.40;34.80;;;;;;5096673;28;20031;-64
2023/08/01 03:07:47;;;;;;;3.38;0.88;;;25.00;34.90;;;;;;5095410;28;20035;-59
2023/08/01 03:10:14;;;;;;;2.72;1.00;;;24.80;35.00;;;;;;5096523;28;20077;-59
2023/08/01 03:12:42;;;;;;;3.20;0.82;;;25.10;34.20;;;;;;5095715;28;20376;-64
2023/08/01 03:15:11;;;;;;;2.38;0.82;;;25.80;33.80;;;;;;5096617;28;20028;-65
2023/08/01 03:17:38;;;;;;;2.17;0.70;;;25.90;33.30;;;;;;5096388;28;20035;-64
2023/08/01 03:20:10;;;;;;;4.13;1.02;;;26.00;32.60;;;;;;5095357;28;20107;-64
2023/08/01 03:22:41;;;;;;;2.58;0.68;;;26.10;32.40;;;;;;5096266;28;20019;-58
2023/08/01 03:25:09;;;;;;;5.20;1.13;;;25.20;32.60;;;;;;5095308;28;20367;-64
2023/08/01 03:27:37;;;;;;;2.75;0.95;;;24.80;34.20;;;;;;5096110;28;20369;-64
2023/08/01 03:30:08;;;;;;;2.33;0.90;;;25.40;34.40;;;;;;5096335;28;20024;-60
2023/08/01 03:32:37;;;;;;;2.15;0.90;;;25.70;32.90;;;;;;5096112;28;20020;-59
2023/08/01 03:35:07;;;;;;;1.92;0.88;;;25.90;33.00;;;;;;5096190;28;20020;-64
2023/08/01 03:37:35;;;;;;;2.47;0.98;;;25.90;32.90;;;;;;5096593;28;20012;-58
2023/08/01 03:40:03;;;;;;;2.63;0.80;;;25.90;32.50;;;;;;5096116;28;20357;-59
2023/08/01 03:42:30;;;;;;;3.40;0.88;;;26.00;33.20;;;;;;5096033;28;20058;-60
2023/08/01 03:44:58;;;;;;;1.60;0.82;;;26.20;33.70;;;;;;5095889;28;20051;-59
2023/08/01 03:47:26;;;;;;;3.15;0.70;;;26.50;32.00;;;;;;5096043;28;20353;-60
2023/08/01 03:49:53;;;;;;;2.25;0.77;;;26.40;32.20;;;;;;5094857;28;20024;-65
2023/08/01 03:52:21;;;;;;;1.65;0.60;;;26.60;31.80;;;;;;5095182;28;20073;-65
2023/08/01 03:54:49;;;;;;;2.33;0.73;;;26.70;32.10;;;;;;5095876;28;20439;-60
2023/08/01 03:57:17;;;;;;;1.48;0.80;;;26.70;30.60;;;;;;5095715;28;20110;-59
2023/08/01 03:59:44;;;;;;;3.53;0.90;;;26.60;31.80;;;;;;5095630;28;20024;-59
2023/08/01 04:02:12;;;;;;;3.45;0.95;;;26.80;31.90;;;;;;5095738;28;20297;-59
2023/08/01 04:04:40;;;;;;;3.17;0.75;;;26.80;31.00;;;;;;5095420;28;20020;-59
2023/08/01 04:07:08;;;;;;;2.30;0.95;;;26.90;32.00;;;;;;5094335;28;20059;-58
2023/08/01 04:09:38;;;;;;;2.55;0.80;;;26.60;31.00;;;;;;5094759;28;20036;-65
2023/08/01 04:12:09;;;;;;;3.17;0.90;;;26.60;29.70;;;;;;5095589;28;20101;-66
2023/08/01 04:14:37;;;;;;;2.13;0.70;;;26.50;31.20;;;;;;5094659;28;20020;-60
2023/08/01 04:17:04;;;;;;;3.13;0.90;;;25.90;31.60;;;;;;5095474;28;20016;-61
2023/08/01 04:19:32;;;;;;;3.15;0.90;;;26.40;30.60;;;;;;5094441;28;20073;-61
2023/08/01 04:22:00;;;;;;;2.45;0.95;;;26.80;30.20;;;;;;5095358;28;20068;-60
2023/08/01 04:24:29;;;;;;;2.05;0.70;;;26.90;29.80;;;;;;5095347;28;20055;-61
2023/08/01 04:26:57;;;;;;;5.78;1.25;;;27.00;29.50;;;;;;5095128;28;20032;-61
2023/08/01 04:29:25;;;;;;;3.58;1.30;;;26.70;30.80;;;;;;5095173;28;20051;-60
2023/08/01 04:31:52;;;;;;;2.42;0.85;;;26.70;29.90;;;;;;5095294;28;20034;-60
2023/08/01 04:34:20;;;;;;;3.50;1.00;;;26.50;29.80;;;;;;5094168;28;20077;-60
2023/08/01 04:36:47;;;;;;;3.65;0.80;;;26.50;29.80;;;;;;5095223;28;20434;-62
2023/08/01 04:39:15;;;;;;;5.05;2.55;;;27.00;29.30;;;;;;5095372;28;20024;-64
2023/08/01 04:41:42;;;;;;;3.20;0.70;;;27.10;29.40;;;;;;5095007;28;20387;-66
2023/08/01 04:44:10;;;;;;;3.35;0.90;;;26.60;29.80;;;;;;5095375;28;20099;-63
2023/08/01 04:46:38;;;;;;;6.03;1.10;;;26.10;30.70;;;;;;5093950;28;20052;-60
2023/08/01 04:49:05;;;;;;;2.38;1.13;;;26.10;31.40;;;;;;5094949;28;20402;-65
2023/08/01 04:51:33;;;;;;;3.45;1.05;;;26.20;30.50;;;;;;5095476;28;20032;-65
2023/08/01 04:54:01;;;;;;;2.88;1.00;;;26.30;30.70;;;;;;5094461;28;20020;-61
2023/08/01 04:56:28;;;;;;;3.42;1.00;;;26.20;30.60;;;;;;5094939;28;20449;-65
2023/08/01 04:58:56;;;;;;;4.57;1.35;;;26.50;30.60;;;;;;5095009;28;20107;-60
2023/08/01 05:01:24;;;;;;;4.60;1.05;;;26.90;29.90;;;;;;5094071;28;20031;-60
2023/08/01 05:03:51;;;;;;;3.10;0.93;;;26.70;30.40;;;;;;5096819;28;20441;-60
2023/08/01 05:06:19;;;;;;;5.03;1.10;;;27.00;31.00;;;;;;5098963;28;20430;-61
2023/08/01 05:08:46;;;;;;;4.50;1.00;;;27.10;30.20;;;;;;5097573;28;20381;-61
2023/08/01 05:11:14;;;;;;;3.38;0.90;;;27.40;30.00;;;;;;5098634;28;20031;-61
2023/08/01 05:13:42;;;;;;;4.00;1.00;;;27.80;29.90;;;;;;5097686;28;20455;-60
2023/08/01 05:16:09;;;;;;;3.92;1.00;;;27.60;29.60;;;;;;5098606;28;20077;-59
2023/08/01 05:18:37;;;;;;;3.08;0.90;;;26.80;30.00;;;;;;5097702;28;20082;-60
2023/08/01 05:21:04;;;;;;;3.28;1.02;;;27.10;30.50;;;;;;5099078;28;20069;-60
2023/08/01 05:23:32;;;;;;;3.25;1.00;;;26.70;30.70;;;;;;5097926;28;20031;-60
2023/08/01 05:26:00;;;;;;;2.58;0.88;;;26.50;30.60;;;;;;5098720;28;20028;-60
2023/08/01 05:28:27;;;;;;;3.08;1.02;;;26.50;31.00;;;;;;5097576;28;20020;-60
2023/08/01 05:30:55;;;;;;;4.03;1.25;;;27.10;31.00;;;;;;5098521;28;20099;-61
2023/08/01 05:33:23;;;;;;;3.08;0.93;;;27.10;29.90;;;;;;5098496;28;20357;-61
2023/08/01 05:35:50;;;;;;;4.30;1.23;;;27.30;30.20;;;;;;5097328;28;20066;-60
2023/08/01 05:38:18;;;;;;;3.92;0.90;;;27.40;29.60;;;;;;5098777;28;20043;-61
2023/08/01 05:40:45;;;;;;;2.60;0.85;;;27.50;29.60;;;;;;5098400;28;20024;-61
2023/08/01 05:43:13;;;;;;;4.07;1.10;;;27.40;30.10;;;;;;5097376;28;20039;-60
2023/08/01 05:45:41;;;;;;;3.50;1.05;;;27.40;29.90;;;;;;5097137;28;20024;-61
2023/08/01 05:48:09;;;;;;;5.65;1.30;;;27.90;29.60;;;;;;5097989;28;20028;-59
2023/08/01 05:50:37;;;;;;;5.20;1.25;;;28.20;30.00;;;;;;5096972;28;20032;-61
2023/08/01 05:53:05;;;;;;;3.78;1.10;;;27.80;30.00;;;;;;5097162;28;20057;-61
2023/08/01 05:55:33;;;;;;;4.68;1.10;;;27.80;30.20;;;;;;5096710;28;20410;-61
2023/08/01 05:58:01;;;;;;;4.20;1.38;;;27.10;30.60;;;;;;5097581;28;20031;-60
2023/08/01 06:00:30;;;;;;;3.83;1.50;;;27.60;30.20;;;;;;5096716;28;20089;-60
2023/08/01 06:02:58;;;;;;;4.10;1.00;;;27.80;30.20;;;;;;5097673;28;20020;-60
2023/08/01 06:05:25;;;;;;;4.93;1.13;;;27.50;30.50;;;;;;5096637;28;20396;-61
2023/08/01 06:07:53;;;;;;;3.28;0.73;;;27.10;30.70;;;;;;5096373;28;20122;-61
2023/08/01 06:10:22;;;;;;;6.00;1.30;;;24.80;33.40;;;;;;5097206;28;20107;-63
2023/08/01 06:12:49;;;;;;;4.47;1.42;;;23.10;35.60;;;;;;5097366;28;20024;-64
2023/08/01 06:15:17;;;;;;;4.35;1.20;;;22.20;37.10;;;;;;5095677;28;20328;-65
2023/08/01 06:17:50;;;;;;;4.10;1.13;;;21.70;37.20;;;;;;5096785;28;20032;-64
2023/08/01 06:20:17;;;;;;;3.47;1.10;;;21.50;38.20;;;;;;5096542;28;20053;-60
2023/08/01 06:22:45;;;;;;;2.97;1.10;;;21.10;38.50;;;;;;5097388;28;20107;-65
2023/08/01 06:25:12;;;;;;;4.03;1.00;;;20.90;38.50;;;;;;5097312;28;20028;-65
2023/08/01 06:27:40;;;;;;;6.97;1.20;;;20.80;39.20;;;;;;5097125;28;20457;-66
2023/08/01 06:30:08;;;;;;;3.47;1.05;;;20.70;38.70;;;;;;5097137;28;20031;-65
2023/08/01 06:32:36;;;;;;;2.95;1.10;;;20.60;38.90;;;;;;5097581;28;20016;-66
2023/08/01 06:35:04;;;;;;;5.50;1.10;;;20.60;39.40;;;;;;5096271;28;20398;-61
2023/08/01 06:37:32;;;;;;;4.95;1.45;;;20.40;39.30;;;;;;5096866;28;20035;-61
2023/08/01 06:40:00;;;;;;;6.97;1.90;;;20.30;40.10;;;;;;5096831;28;20027;-61
2023/08/01 06:42:27;;;;;;;8.18;2.35;;;20.20;40.00;;;;;;5095908;28;20460;-60
2023/08/01 06:44:55;;;;;;;6.18;2.03;;;20.00;40.80;;;;;;5096943;28;20420;-60
2023/08/01 06:47:23;;;;;;;4.20;2.15;;;19.90;40.60;;;;;;5096717;28;20437;-60
2023/08/01 06:49:50;;;;;;;5.13;2.15;;;19.90;40.50;;;;;;5095663;28;20085;-61
2023/08/01 06:52:18;;;;;;;2.63;0.93;;;19.70;40.60;;;;;;5096846;28;20023;-61
2023/08/01 06:54:45;;;;;;;3.40;1.50;;;19.70;40.20;;;;;;5096690;28;20046;-61
2023/08/01 06:57:13;;;;;;;3.67;1.50;;;19.70;41.00;;;;;;5096436;28;20095;-62
2023/08/01 06:59:41;;;;;;;2.42;0.82;;;19.50;40.60;;;;;;5095514;28;20028;-60
2023/08/01 07:02:08;;;;;;;3.78;1.20;;;19.40;40.90;;;;;;5095794;28;20070;-60
2023/08/01 07:04:37;;;;;;;10.38;1.80;;;19.30;41.70;;;;;;5096465;28;20082;-60
2023/08/01 07:07:05;;;;;;;6.53;1.40;;;19.10;42.00;;;;;;5096269;28;20016;-61
2023/08/01 07:09:33;;;;;;;7.78;1.90;;;19.00;42.60;;;;;;5095188;28;20172;-59
2023/08/01 07:12:05;;;;;;;4.13;1.48;;;18.70;42.70;;;;;;5096346;28;20020;-60
2023/08/01 07:14:34;;;;;;;4.55;1.30;;;18.60;43.30;;;;;;5095659;28;20395;-62
2023/08/01 07:17:02;;;;;;;3.50;1.40;;;18.60;43.20;;;;;;5096371;28;20020;-64
2023/08/01 07:19:30;;;;;;;3.25;1.30;;;18.40;43.40;;;;;;5095309;28;20093;-64
2023/08/01 07:21:57;;;;;;;4.80;1.48;;;18.30;44.10;;;;;;5095369;28;20020;-63
2023/08/01 07:24:25;;;;;;;4.13;1.38;;;18.20;44.50;;;;;;5096243;28;20017;-62
2023/08/01 07:26:53;;;;;;;5.85;1.77;;;18.00;45.20;;;;;;5095088;28;20137;-62
2023/08/01 07:29:20;;;;;;;8.45;2.25;;;17.90;45.20;;;;;;5095068;28;20024;-63
2023/08/01 07:31:48;;;;;;;7.90;2.63;;;17.80;45.70;;;;;;5095995;28;20096;-63
2023/08/01 07:34:15;;;;;;;5.85;1.40;;;17.80;46.10;;;;;;5095966;28;20437;-62
2023/08/01 07:36:43;;;;;;;4.47;1.30;;;17.60;46.30;;;;;;5095817;28;20028;-62
2023/08/01 07:39:11;;;;;;;5.07;1.30;;;17.60;46.30;;;;;;5094598;28;20032;-62
2023/08/01 07:41:38;;;;;;;4.47;1.40;;;17.50;46.90;;;;;;5095703;28;20077;-62
2023/08/01 07:44:06;;;;;;;5.90;2.50;;;17.30;47.40;;;;;;5095788;28;20016;-62
2023/08/01 07:46:34;;;;;;;4.70;1.92;;;17.20;47.80;;;;;;5095758;28;20437;-62
2023/08/01 07:49:01;;;;;;;6.72;2.20;;;17.10;47.80;;;;;;5094784;28;20449;-62
2023/08/01 07:51:29;;;;;;;6.60;1.85;;;17.00;48.10;;;;;;5095338;28;20032;-63
2023/08/01 07:53:58;;;;;;;6.88;2.83;;;17.00;48.60;;;;;;5095795;28;20028;-64
2023/08/01 07:56:26;;;;;;;10.18;2.53;;;16.80;48.90;;;;;;5095451;28;20028;-64
2023/08/01 07:58:53;;;;;;;7.50;2.60;;;16.80;49.40;;;;;;5095535;28;20456;-63
2023/08/01 08:01:21;;;;;;;10.23;2.65;;;16.70;49.60;;;;;;5095549;28;20049;-63
2023/08/01 08:03:48;;;;;;;7.70;2.90;;;16.60;49.50;;;;;;5094429;28;20024;-64
2023/08/01 08:06:16;;;;;;;6.70;2.58;;;16.50;50.50;;;;;;5095373;28;20016;-63
2023/08/01 08:08:43;;;;;;;7.05;2.65;;;16.40;51.10;;;;;;5094905;28;20048;-63
2023/08/01 08:11:11;;;;;;;9.85;2.53;;;16.30;51.40;;;;;;5095157;28;20024;-64
2023/08/01 08:13:39;;;;;;;9.10;2.50;;;16.20;51.30;;;;;;5095613;28;20099;-66
2023/08/01 08:16:08;;;;;;;8.35;2.60;;;16.10;51.80;;;;;;5094312;28;20024;-65
2023/08/01 08:18:35;;;;;;;7.40;2.50;;;16.10;52.00;;;;;;5094967;28;20012;-66
2023/08/01 08:21:03;;;;;;;9.57;2.40;;;16.10;52.50;;;;;;5091212;28;20024;-67
2023/08/01 08:23:30;;;;;;;9.25;3.13;;;16.00;52.50;;;;;;5086141;28;20052;-66
2023/08/01 08:25:58;;;;;;;8.15;2.65;;;15.80;52.70;;;;;;5080602;28;20032;-66
2023/08/01 08:28:32;;;;;;;8.18;2.28;;;15.70;53.10;;;;;;5080017;28;20478;-66
2023/08/01 08:31:04;;;;;;;8.27;2.83;;;15.60;53.50;;;;;;5070845;28;20036;-66
2023/08/01 08:33:32;;;;;;;7.03;2.70;;;15.70;53.70;;;;;;5072621;28;20028;-68
2023/08/01 08:35:59;;;;;;;6.15;2.83;;;15.60;54.30;;;;;;5073049;28;20039;-66
2023/08/01 08:38:28;;;;;;;7.57;2.78;;;15.60;54.90;;;;;;5074148;28;20616;-66
2023/08/01 08:41:14;;;;;;;10.70;2.90;;;15.30;55.80;;;;;;5076136;28;20039;-66
2023/08/01 08:43:43;;;;;;;5.38;2.63;;;15.10;56.60;;;;;;5076861;28;20036;-66
2023/08/01 08:46:11;;;;;;;9.00;2.88;;;15.20;56.90;;;;;;5078703;28;20025;-65
2023/08/01 08:48:40;;;;;;;7.20;2.42;;;15.20;56.00;;;;;;5078733;28;20070;-65
2023/08/01 08:51:08;;;;;;;6.97;2.03;;;15.20;56.00;;;;;;5078079;28;20028;-65
2023/08/01 08:53:36;;;;;;;6.28;2.45;;;15.10;56.20;;;;;;5077517;28;20350;-66
2023/08/01 08:56:05;;;;;;;5.32;2.10;;;14.90;57.10;;;;;;5078605;28;20020;-66
2023/08/01 08:58:33;;;;;;;4.85;2.38;;;14.60;58.70;;;;;;5077439;28;20027;-65
2023/08/01 09:01:02;;;;;;;5.78;2.10;;;14.40;59.40;;;;;;5076897;28;20070;-66
2023/08/01 09:03:30;;;;;;;5.05;1.83;;;14.30;59.20;;;;;;5076576;28;20020;-66
2023/08/01 09:06:32;;;;;;;3.97;1.98;;;14.20;60.20;;;;;;5078290;28;20055;-65
2023/08/01 09:09:12;;;;;;;3.30;1.75;;;14.10;59.90;;;;;;5055581;28;20052;-65
2023/08/01 09:11:45;;;;;;;3.10;1.50;;;14.00;60.40;;;;;;5078355;28;20025;-65
2023/08/01 09:14:13;;;;;;;7.28;2.65;;;13.70;61.20;;;;;;5078244;28;20435;-66
2023/08/01 09:16:45;;;;;;;5.70;1.80;;;13.50;62.30;;;;;;5077031;28;20027;-65
2023/08/01 09:19:21;;;;;;;7.97;2.40;;;13.40;62.70;;;;;;5078101;28;20062;-65
2023/08/01 09:21:50;;;;;;;4.18;2.22;;;13.20;63.40;;;;;;5077162;28;20028;-65
2023/08/01 09:24:21;;;;;;;6.25;2.20;;;13.30;63.50;;;;;;5078112;28;20025;-65
2023/08/01 09:26:50;;;;;;;5.18;2.20;;;13.30;63.10;;;;;;5076805;28;20111;-65
2023/08/01 09:29:18;;;;;;;6.60;1.90;;;13.00;64.80;;;;;;5076224;28;20033;-65
2023/08/01 09:31:45;;;;;;;6.30;2.10;;;12.70;66.00;;;;;;5076314;28;20060;-65
2023/08/01 09:34:20;;;;;;;6.75;1.98;;;12.60;66.70;;;;;;5076688;28;20078;-65
2023/08/01 09:36:48;;;;;;;3.53;1.70;;;12.60;66.70;;;;;;5076664;28;20108;-65
2023/08/01 09:39:21;;;;;;;5.90;1.48;;;12.40;67.50;;;;;;5060034;28;20119;-66
2023/08/01 09:42:02;;;;;;;4.20;1.38;;;12.20;68.50;;;;;;5077753;28;20378;-66
2023/08/01 09:44:30;;;;;;;3.20;1.70;;;12.00;69.10;;;;;;5076737;28;20024;-65
2023/08/01 09:47:03;;;;;;;4.32;1.60;;;12.10;68.20;;;;;;5076773;28;20111;-65
2023/08/01 09:49:31;;;;;;;3.58;1.55;;;12.20;67.80;;;;;;5076633;28;20020;-65
2023/08/01 09:52:01;;;;;;;4.35;1.67;;;12.20;67.90;;;;;;5077539;28;20035;-66
2023/08/01 09:54:29;;;;;;;5.40;1.80;;;12.20;68.50;;;;;;5076787;28;20186;-65
2023/08/01 09:56:56;;;;;;;4.63;1.65;;;12.20;68.10;;;;;;5077848;28;20490;-65
2023/08/01 09:59:26;;;;;;;3.58;1.60;;;12.20;68.20;;;;;;5077781;28;20466;-66
2023/08/01 10:01:55;;;;;;;3.60;1.60;;;12.00;69.20;;;;;;5077218;28;20016;-65
2023/08/01 10:04:30;;;;;;;5.15;1.88;;;11.80;69.70;;;;;;5077599;28;20020;-66
2023/08/01 10:07:07;;;;;;;4.82;1.80;;;11.80;70.10;;;;;;5076028;28;20025;-66
2023/08/01 10:09:36;;;;;;;5.32;2.20;;;11.90;70.40;;;;;;5057923;28;20040;-66
2023/08/01 10:12:06;;;;;;;4.80;2.15;;;11.60;70.90;;;;;;5074975;28;20111;-65
2023/08/01 10:14:34;;;;;;;4.53;2.13;;;11.50;71.90;;;;;;5075631;28;20462;-65
2023/08/01 10:17:03;;;;;;;5.78;1.92;;;11.20;72.60;;;;;;5074639;28;20025;-66
2023/08/01 10:19:33;;;;;;;6.95;1.83;;;11.10;73.10;;;;;;5074971;28;20455;-64
2023/08/01 10:22:01;;;;;;;4.57;2.10;;;11.20;72.70;;;;;;5077449;28;20038;-66
2023/08/01 10:24:30;;;;;;;5.43;2.50;;;11.20;73.30;;;;;;5077617;28;20375;-65
2023/08/01 10:26:58;;;;;;;5.38;2.05;;;11.20;73.70;;;;;;5077121;28;20028;-64
2023/08/01 10:29:46;;;;;;;4.30;1.70;;;11.10;73.90;;;;;;5076942;28;20020;-66
2023/08/01 10:32:14;;;;;;;4.57;1.80;;;11.00;74.00;;;;;;5076135;28;20049;-65
2023/08/01 10:34:52;;;;;;;3.53;2.10;;;11.00;74.10;;;;;;5077054;28;20021;-65
2023/08/01 10:37:20;;;;;;;4.15;1.70;;;11.00;73.60;;;;;;5075667;28;20024;-66
2023/08/01 10:39:58;;;;;;;3.67;1.60;;;11.10;74.20;;;;;;5059563;28;20036;-67
2023/08/01 10:42:38;;;;;;;4.22;1.70;;;11.10;73.90;;;;;;5076968;28;20029;-62
2023/08/01 10:45:07;;;;;;;5.50;1.85;;;11.10;73.40;;;;;;5077517;28;20020;-66
2023/08/01 10:47:34;;;;;;;4.18;2.08;;;11.10;73.90;;;;;;5076862;28;20036;-64
2023/08/01 10:50:03;;;;;;;5.97;1.90;;;10.90;75.40;;;;;;5075708;28;20032;-65
2023/08/01 10:52:31;;;;;;;4.38;1.90;;;10.70;76.20;;;;;;5075578;28;20050;-67
2023/08/01 10:55:02;;;;;;;4.53;1.70;;;10.60;76.70;;;;;;5075631;28;20082;-66
2023/08/01 10:57:31;;;;;;;5.05;2.33;;;10.50;76.70;;;;;;5076496;28;20074;-65
2023/08/01 10:59:59;;;;;;;4.82;2.22;;;10.50;76.90;;;;;;5076530;28;20020;-66
2023/08/01 11:02:29;;;;;;;5.45;2.50;;;10.50;77.20;;;;;;5075406;28;20025;-65
2023/08/01 11:05:01;;;;;;;5.07;2.47;;;10.40;77.40;;;;;;5076520;28;20032;-67
2023/08/01 11:07:28;;;;;;;6.85;2.30;;;10.40;77.50;;;;;;5076152;28;20021;-66
2023/08/01 11:10:07;;;;;;;5.05;1.83;;;10.40;77.50;;;;;;5075224;28;20465;-64
2023/08/01 11:12:39;;;;;;;8.27;2.25;;;10.30;77.60;;;;;;5076648;28;20029;-64
2023/08/01 11:15:12;;;;;;;7.25;2.40;;;10.30;77.40;;;;;;5075992;28;20021;-64
2023/08/01 11:17:47;;;;;;;7.78;2.70;;;10.30;77.50;;;;;;5076295;28;20052;-65
2023/08/01 11:20:15;;;;;;;6.13;2.35;;;10.20;78.00;;;;;;5076245;28;20082;-65
2023/08/01 11:22:57;;;;;;;5.10;2.38;;;10.10;78.50;;;;;;5075519;28;20063;-65
2023/08/01 11:25:38;;;;;;;5.85;2.38;;;10.20;78.10;;;;;;5085024;28;20032;-64
2023/08/01 11:28:13;;;;;;;4.40;2.75;;;10.10;78.50;;;;;;5095505;28;20059;-65
2023/08/01 11:30:42;;;;;;;6.07;2.92;;;10.20;78.20;;;;;;5076987;28;20043;-66
2023/08/01 11:33:21;;;;;;;5.95;3.08;;;10.20;78.10;;;;;;5095889;28;20028;-66
2023/08/01 11:35:57;;;;;;;5.55;2.72;;;10.30;77.90;;;;;;5094969;28;20032;-66
2023/08/01 11:38:26;;;;;;;5.68;3.22;;;10.30;78.00;;;;;;5096002;28;20115;-65
2023/08/01 11:40:54;;;;;;;7.38;3.00;;;10.30;76.90;;;;;;5095992;28;20024;-65
2023/08/01 11:43:21;;;;;;;4.43;2.80;;;10.10;78.10;;;;;;5095107;28;20030;-64
2023/08/01 11:45:54;;;;;;;6.55;2.97;;;10.40;76.90;;;;;;5094753;28;20073;-64
2023/08/01 11:48:25;;;;;;;9.43;3.30;;;10.20;76.50;;;;;;5094577;28;20081;-64
2023/08/01 11:51:00;;;;;;;6.65;2.95;;;10.10;78.20;;;;;;5092815;28;20024;-64
2023/08/01 11:53:29;;;;;;;6.03;3.20;;;10.30;76.80;;;;;;5092942;28;20020;-66
2023/08/01 11:55:56;;;;;;;5.75;3.25;;;10.00;76.00;;;;;;5093738;28;20031;-68
2023/08/01 11:58:35;;;;;;;6.45;3.60;;;10.00;77.40;;;;;;5092799;28;20020;-67
2023/08/01 12:01:13;;;;;;;7.88;2.90;;;10.20;76.50;;;;;;5093382;28;20028;-68
2023/08/01 12:03:49;;;;;;;5.38;3.83;;;10.20;77.00;;;;;;5093010;28;20127;-66
2023/08/01 12:06:21;;;;;;;8.40;3.13;;;10.30;76.70;;;;;;5095228;28;20354;-64
2023/08/01 12:08:52;;;;;;;7.88;3.20;;;10.40;76.10;;;;;;5094754;28;20043;-66
2023/08/01 12:11:22;;;;;;;6.32;3.38;;;10.30;76.90;;;;;;5095711;28;20103;-67
2023/08/01 12:14:05;;;;;;;7.63;3.60;;;10.00;78.40;;;;;;5095087;28;20350;-66
2023/08/01 12:16:33;;;;;;;8.05;3.50;;;9.90;79.10;;;;;;5094897;28;20095;-66
2023/08/01 12:19:00;;;;;;;8.98;3.35;;;10.00;78.40;;;;;;5094618;28;20346;-66
2023/08/01 12:21:32;;;;;;;6.85;3.42;;;9.90;79.00;;;;;;5094370;28;20032;-66
2023/08/01 12:24:00;;;;;;;7.03;3.70;;;10.00;78.80;;;;;;5094496;28;20024;-66
2023/08/01 12:26:28;;;;;;;9.20;3.72;;;10.00;78.60;;;;;;5095373;28;20024;-66
2023/08/01 12:28:55;;;;;;;7.53;3.38;;;9.70;79.90;;;;;;5094485;28;20024;-66
2023/08/01 12:31:25;;;;;;;5.63;3.40;;;9.70;80.00;;;;;;5094671;28;20043;-67
2023/08/01 12:33:53;;;;;;;9.43;3.40;;;9.80;79.20;;;;;;5094972;28;20016;-65
2023/08/01 12:36:21;;;;;;;7.72;3.53;;;9.90;78.90;;;;;;5094532;28;20024;-65
2023/08/01 12:38:48;;;;;;;5.72;3.45;;;9.70;80.00;;;;;;5095370;28;20028;-65
2023/08/01 12:41:16;;;;;;;8.25;4.07;;;9.70;80.20;;;;;;5095380;28;20327;-66
2023/08/01 12:43:43;;;;;;;10.57;4.78;;;9.40;81.00;;;;;;5095407;28;20030;-66
2023/08/01 12:46:11;;;;;;;7.10;3.03;;;9.50;80.60;;;;;;5094274;28;20407;-66
2023/08/01 12:48:38;;;;;;;7.90;3.63;;;9.50;80.60;;;;;;5095199;28;20410;-64
2023/08/01 12:51:06;;;;;;;9.15;3.92;;;9.50;80.90;;;;;;5094326;28;20024;-67
2023/08/01 12:53:33;;;;;;;7.60;3.85;;;9.40;81.40;;;;;;5095156;28;20450;-65
2023/08/01 12:56:01;;;;;;;5.20;3.03;;;9.30;81.90;;;;;;5095145;28;20020;-65
2023/08/01 12:58:28;;;;;;;6.72;3.65;;;9.20;82.20;;;;;;5094011;28;20024;-66